Capt. Harry — WDC3690 — position and weather

sailwx.info

Track history (hours):
 
Tides and Currents Weather Stations Pressure Air Temp Water Temp Dewpoint Dewpoint Depression Visibility Wind Speed Wind Dir Waves Ship Positions

Capt. Harry

Owner: Wilmington Tug, Inc., New Castle, DE. More information available from US FCC via Universal Licensing System and Coast Guard Vessel Documentation Center.

Last reported at 2017-May-26 18:31 UTC. Time now 2017-May-26 18:44 UTC.
Position N 39°53' W 075°11'.

Length 24 m; draft 4 m.

Type: Tug. MMSI: 367012530.

Date/timePositionNaut miles runAvg speedWind from/ knotsBaromVisibWave heightAir tempDewpointWater temp
2017-May-26 18:31N 39°53' W 075°11'0 0.0
2017-May-26 18:01N 39°53' W 075°11'0 0.0
2017-May-26 17:31N 39°53' W 075°11'0 0.0
2017-May-26 17:00N 39°53' W 075°11'0 0.0
2017-May-26 16:30N 39°53' W 075°11'0 0.0
2017-May-26 16:00N 39°53' W 075°11'0 0.0
2017-May-26 15:31N 39°53' W 075°11'0 0.0
2017-May-26 15:00N 39°53' W 075°11'0 0.0
2017-May-26 14:00N 39°53' W 075°11'0 0.0
2017-May-26 13:30N 39°53' W 075°11'0 0.0
2017-May-26 13:00N 39°53' W 075°11'0 0.0
2017-May-26 12:30N 39°53' W 075°11'0 0.0
2017-May-26 12:00N 39°53' W 075°11'0 0.0
2017-May-26 11:30N 39°53' W 075°11'0 0.0
2017-May-26 11:00N 39°53' W 075°11'0 0.0
2017-May-26 10:30N 39°53' W 075°11'0 0.0
2017-May-26 10:00N 39°53' W 075°11'0 0.0
2017-May-26 09:30N 39°53' W 075°11'0 0.0
2017-May-26 09:00N 39°53' W 075°11'0 0.0
2017-May-26 08:30N 39°53' W 075°11'0 0.0
2017-May-26 08:01N 39°53' W 075°11'0 0.0
2017-May-26 07:30N 39°53' W 075°11'0 0.0
2017-May-26 07:00N 39°53' W 075°11'0 0.0
2017-May-26 06:30N 39°53' W 075°11'0 0.0
2017-May-26 06:00N 39°53' W 075°11'0 0.0
2017-May-26 05:30N 39°53' W 075°11'0 0.0
2017-May-26 05:00N 39°53' W 075°11'0 0.0
2017-May-26 04:30N 39°53' W 075°11'0 0.0
2017-May-26 04:00N 39°53' W 075°11'0 0.0
2017-May-26 03:30N 39°53' W 075°11'0 0.0
2017-May-26 03:00N 39°53' W 075°11'0 0.6
2017-May-26 02:30N 39°53' W 075°11'4 8.6
2017-May-26 02:01N 39°51' W 075°16'0 0.0
2017-May-26 01:30N 39°51' W 075°16'1 2.7
2017-May-26 01:01N 39°51' W 075°15'1 1.5
2017-May-26 00:30N 39°52' W 075°14'2 4.9
2017-May-26 00:00N 39°53' W 075°11'0 0.0
2017-May-25 23:31N 39°53' W 075°11'0 0.0
2017-May-25 23:00N 39°53' W 075°11'0 0.0
2017-May-25 22:30N 39°53' W 075°11'0 0.0
2017-May-25 22:00N 39°53' W 075°11'0 0.0
2017-May-25 21:31N 39°53' W 075°11'0 0.0
2017-May-25 21:01N 39°53' W 075°11'0 0.0
2017-May-25 20:30N 39°53' W 075°11'0 0.0
2017-May-25 20:00N 39°53' W 075°11'2 4.5
2017-May-25 19:30N 39°52' W 075°14'510.0
2017-May-25 19:00N 39°51' W 075°20'5 9.3
2017-May-25 18:30N 39°48' W 075°25'0 0.1
2017-May-25 18:01N 39°48' W 075°25'0 0.0
2017-May-25 17:30N 39°48' W 075°25'0 0.1
2017-May-25 17:00N 39°48' W 075°25'0 0.6
2017-May-25 16:30N 39°49' W 075°25'0 0.5
2017-May-25 16:01N 39°49' W 075°24'0 0.0
2017-May-25 15:31N 39°49' W 075°24'0 0.4
2017-May-25 15:01N 39°49' W 075°24'0 0.2
2017-May-25 14:00N 39°49' W 075°25'1 2.2
2017-May-25 13:30N 39°48' W 075°26'0 0.0
2017-May-25 13:00N 39°48' W 075°26'0 0.0
2017-May-25 12:30N 39°48' W 075°26'0 0.0
2017-May-25 12:00N 39°48' W 075°26'0 0.0
2017-May-25 11:30N 39°48' W 075°26'0 0.0
2017-May-25 11:00N 39°48' W 075°26'0 0.0
2017-May-25 10:30N 39°48' W 075°26'0 0.0
2017-May-25 10:00N 39°48' W 075°26'0 0.0
2017-May-25 09:30N 39°48' W 075°26'0 0.0
2017-May-25 09:00N 39°48' W 075°26'0 0.0
2017-May-25 08:31N 39°48' W 075°26'0 0.0
2017-May-25 08:00N 39°48' W 075°26'0 0.0
2017-May-25 07:30N 39°48' W 075°26'0 0.0
2017-May-25 07:00N 39°48' W 075°26'0 0.0
2017-May-25 06:30N 39°48' W 075°26'1 2.4
2017-May-25 06:00N 39°49' W 075°24'0 0.1
2017-May-25 05:31N 39°49' W 075°24'0 0.0
2017-May-25 05:00N 39°49' W 075°24'1 1.2
2017-May-25 04:30N 39°48' W 075°25'0 0.1
2017-May-25 04:00N 39°48' W 075°25'0 0.0
2017-May-25 03:30N 39°48' W 075°25'0 0.0
2017-May-25 03:00N 39°48' W 075°25'0 0.1
2017-May-25 02:30N 39°48' W 075°25'1 1.4
2017-May-25 02:00N 39°48' W 075°26'2 4.0
2017-May-25 01:31N 39°49' W 075°24'4 8.7
2017-May-25 01:00N 39°51' W 075°19'510.2
2017-May-25 00:30N 39°53' W 075°12'1 2.3
2017-May-25 00:00N 39°53' W 075°11'0 0.0
2017-May-24 23:30N 39°53' W 075°11'0 0.0
2017-May-24 23:00N 39°53' W 075°11'0 0.0
2017-May-24 22:30N 39°53' W 075°11'0 0.0
2017-May-24 22:00N 39°53' W 075°11'0 0.0
2017-May-24 21:31N 39°53' W 075°11'0 0.0
2017-May-24 21:00N 39°53' W 075°11'0 0.0
2017-May-24 20:30N 39°53' W 075°11'1 1.3
2017-May-24 20:00N 39°53' W 075°12'4 7.4
2017-May-24 19:31N 39°51' W 075°16'0 0.2
2017-May-24 19:00N 39°51' W 075°16'0 0.0
2017-May-24 18:30N 39°51' W 075°16'4 7.7
2017-May-24 18:01N 39°53' W 075°12'2 3.5
2017-May-24 17:30N 39°55' W 075°13'1 2.4
2017-May-24 17:00N 39°54' W 075°12'1 1.5
2017-May-24 16:30N 39°53' W 075°11'3 5.4
2017-May-24 16:01N 39°52' W 075°14'510.6
2017-May-24 15:30N 39°51' W 075°21'510.9
2017-May-24 15:00N 39°47' W 075°27'713.6
2017-May-24 14:30N 39°42' W 075°31'8 7.6
2017-May-24 13:30N 39°34' W 075°34'2 3.1
2017-May-24 13:01N 39°35' W 075°35'0 0.0
2017-May-24 12:31N 39°35' W 075°35'0 0.2
2017-May-24 12:00N 39°35' W 075°35'4 8.1
2017-May-24 11:30N 39°39' W 075°34'5 9.4
2017-May-24 11:00N 39°43' W 075°31'0 0.2
2017-May-24 10:30N 39°43' W 075°31'0 0.0
2017-May-24 10:01N 39°43' W 075°31'0 0.0
2017-May-24 09:30N 39°43' W 075°31'0 0.0
2017-May-24 09:01N 39°43' W 075°31'0 0.0
2017-May-24 08:30N 39°43' W 075°31'0 0.0
2017-May-24 08:01N 39°43' W 075°31'0 0.0
2017-May-24 07:30N 39°43' W 075°31'0 0.0
2017-May-24 07:00N 39°43' W 075°31'0 0.0
2017-May-24 06:30N 39°43' W 075°31'0 0.0
2017-May-24 06:00N 39°43' W 075°31'0 0.0
2017-May-24 05:31N 39°43' W 075°31'0 0.0
2017-May-24 05:00N 39°43' W 075°31'0 0.0
2017-May-24 04:30N 39°43' W 075°31'0 0.4
2017-May-24 04:00N 39°43' W 075°31'0 0.4
2017-May-24 03:30N 39°43' W 075°31'0 0.0
2017-May-24 03:00N 39°43' W 075°31'0 0.0
2017-May-24 02:30N 39°43' W 075°31'0 0.0
2017-May-24 02:00N 39°43' W 075°31'0 0.0
2017-May-24 01:30N 39°43' W 075°31'0 0.0
2017-May-24 01:00N 39°43' W 075°31'0 0.0
2017-May-24 00:30N 39°43' W 075°31'0 0.0
2017-May-24 00:01N 39°43' W 075°31'0 0.0
2017-May-23 23:30N 39°43' W 075°31'0 0.9
2017-May-23 23:01N 39°43' W 075°30'611.8
2017-May-23 22:30N 39°48' W 075°26'1 1.8
2017-May-23 22:00N 39°48' W 075°25'0 0.4
2017-May-23 21:31N 39°48' W 075°25'3 6.2
2017-May-23 21:00N 39°50' W 075°22'5 9.4
2017-May-23 20:31N 39°51' W 075°16'0 0.0
2017-May-23 20:00N 39°51' W 075°16'0 0.0
2017-May-23 19:30N 39°51' W 075°16'0 0.0
2017-May-23 19:00N 39°51' W 075°16'0 0.0
2017-May-23 18:30N 39°51' W 075°16'0 0.0
2017-May-23 18:00N 39°51' W 075°16'0 0.0
2017-May-23 17:30N 39°51' W 075°16'0 0.0
2017-May-23 17:00N 39°51' W 075°16'0 0.0
2017-May-23 16:30N 39°51' W 075°16'0 0.0
2017-May-23 16:00N 39°51' W 075°16'0 0.0
2017-May-23 15:30N 39°51' W 075°16'0 0.0
2017-May-23 15:00N 39°51' W 075°16'0 0.2
2017-May-23 14:00N 39°51' W 075°16'0 1.0
2017-May-23 13:30N 39°51' W 075°15'2 3.7
2017-May-23 13:00N 39°52' W 075°13'2 4.2
2017-May-23 12:30N 39°53' W 075°11'0 0.0
2017-May-23 12:01N 39°53' W 075°11'0 0.0
2017-May-23 11:30N 39°53' W 075°11'0 0.0
2017-May-23 11:00N 39°53' W 075°11'0 0.0
2017-May-23 10:30N 39°53' W 075°11'0 0.0
2017-May-23 10:00N 39°53' W 075°11'0 0.0
2017-May-23 09:30N 39°53' W 075°11'0 0.0
2017-May-23 09:00N 39°53' W 075°11'0 0.0
2017-May-23 08:30N 39°53' W 075°11'0 0.0
2017-May-23 08:00N 39°53' W 075°11'0 0.0
2017-May-23 07:31N 39°53' W 075°11'0 0.0
2017-May-23 07:00N 39°53' W 075°11'3 6.9
2017-May-23 06:31N 39°56' W 075°08'4 8.1
2017-May-23 06:00N 39°59' W 075°04'0 0.1
2017-May-23 05:30N 39°59' W 075°04'3 6.0
2017-May-23 05:00N 39°58' W 075°08'4 8.3
2017-May-23 04:30N 39°53' W 075°08'3 5.4
2017-May-23 04:00N 39°53' W 075°12'1 1.5
2017-May-23 03:30N 39°54' W 075°12'1 1.1
2017-May-23 03:00N 39°54' W 075°12'0 0.3
2017-May-23 02:30N 39°54' W 075°12'0 0.4
2017-May-23 02:00N 39°54' W 075°12'3 5.7
2017-May-23 01:30N 39°51' W 075°14'0 0.1
2017-May-23 01:00N 39°51' W 075°14'1 2.0
2017-May-23 00:30N 39°51' W 075°15'2 3.1
2017-May-23 00:01N 39°52' W 075°14'2 4.7
2017-May-22 23:31N 39°53' W 075°11'0 0.0
2017-May-22 23:01N 39°53' W 075°11'0 0.0
2017-May-22 22:30N 39°53' W 075°11'0 0.0
2017-May-22 22:00N 39°53' W 075°11'0 0.0
2017-May-22 21:30N 39°53' W 075°11'0 0.0
2017-May-22 21:01N 39°53' W 075°11'0 0.0
2017-May-22 20:30N 39°53' W 075°11'0 0.0
2017-May-22 20:01N 39°53' W 075°11'0 0.0
2017-May-22 19:30N 39°53' W 075°11'0 0.0
2017-May-22 19:00N 39°53' W 075°11'1 1.4
2017-May-22 18:30N 39°53' W 075°10'4 8.2
2017-May-22 18:00N 39°57' W 075°08'4 7.6
2017-May-22 17:30N 39°59' W 075°04'0 0.0
2017-May-22 17:00N 39°59' W 075°04'1 2.0
2017-May-22 16:30N 39°59' W 075°05'0 0.0
2017-May-22 16:00N 39°59' W 075°05'0 0.0
2017-May-22 15:30N 39°59' W 075°05'0 0.0
2017-May-22 15:00N 39°59' W 075°05'0 0.0
2017-May-22 14:00N 39°59' W 075°05'0 0.0
2017-May-22 13:30N 39°59' W 075°05'0 0.0
2017-May-22 13:00N 39°59' W 075°05'0 0.0
2017-May-22 12:30N 39°59' W 075°05'0 0.0
2017-May-22 12:00N 39°59' W 075°05'0 0.0
2017-May-22 11:30N 39°59' W 075°05'0 0.0
2017-May-22 11:00N 39°59' W 075°05'0 0.0
2017-May-22 10:30N 39°59' W 075°05'0 0.0
2017-May-22 10:00N 39°59' W 075°05'0 0.0
2017-May-22 09:30N 39°59' W 075°05'0 0.0
2017-May-22 09:00N 39°59' W 075°05'0 0.0
2017-May-22 08:30N 39°59' W 075°05'0 0.0
2017-May-22 07:58N 39°59' W 075°05'0 0.0
2017-May-22 07:30N 39°59' W 075°05'0 0.0
2017-May-22 07:00N 39°59' W 075°05'0 0.0
2017-May-22 06:30N 39°59' W 075°05'1 1.5
2017-May-22 06:00N 39°59' W 075°04'0 0.0
2017-May-22 05:30N 39°59' W 075°04'0 0.0
2017-May-22 05:00N 39°59' W 075°04'1 1.7
2017-May-22 04:30N 39°59' W 075°06'2 4.5
2017-May-22 04:00N 39°57' W 075°08'1 1.5
2017-May-22 03:30N 39°57' W 075°08'1 1.6
2017-May-22 03:00N 39°57' W 075°08'3 6.1
2017-May-22 02:30N 39°59' W 075°04'1 1.6
2017-May-22 02:00N 39°59' W 075°05'0 0.0
2017-May-22 01:30N 39°59' W 075°05'0 0.0
2017-May-22 01:00N 39°59' W 075°05'0 0.0
2017-May-22 00:30N 39°59' W 075°05'0 0.0
2017-May-22 00:00N 39°59' W 075°05'0 0.0
2017-May-21 23:30N 39°59' W 075°05'0 0.5
2017-May-21 23:00N 39°59' W 075°05'0 0.5
2017-May-21 22:30N 39°59' W 075°05'0 0.0
2017-May-21 22:00N 39°59' W 075°05'0 0.0
2017-May-21 21:30N 39°59' W 075°05'0 0.0
2017-May-21 21:00N 39°59' W 075°05'0 0.0
2017-May-21 20:30N 39°59' W 075°05'0 0.0
2017-May-21 20:00N 39°59' W 075°05'0 0.0
2017-May-21 19:30N 39°59' W 075°05'0 0.0
2017-May-21 19:00N 39°59' W 075°05'1 1.6
2017-May-21 18:30N 39°59' W 075°04'0 0.4
2017-May-21 18:00N 39°59' W 075°04'0 0.0
2017-May-21 17:30N 39°59' W 075°04'0 0.3
2017-May-21 17:00N 39°59' W 075°04'3 6.7
2017-May-21 16:30N 39°57' W 075°08'3 7.0
2017-May-21 16:00N 39°54' W 075°08'2 4.7
2017-May-21 15:30N 39°53' W 075°11'0 0.0
2017-May-21 15:00N 39°53' W 075°11'0 0.0
2017-May-21 14:00N 39°53' W 075°11'0 0.0
2017-May-21 13:30N 39°53' W 075°11'0 0.0
2017-May-21 13:00N 39°53' W 075°11'0 0.0
2017-May-21 12:30N 39°53' W 075°11'0 0.0
2017-May-21 12:00N 39°53' W 075°11'0 0.0
2017-May-21 11:30N 39°53' W 075°11'0 0.0
2017-May-21 11:00N 39°53' W 075°11'0 0.0
2017-May-21 10:30N 39°53' W 075°11'0 0.0
2017-May-21 10:00N 39°53' W 075°11'0 0.0
2017-May-21 09:30N 39°53' W 075°11'0 0.0
2017-May-21 09:00N 39°53' W 075°11'0 0.0
2017-May-21 08:30N 39°53' W 075°11'0 0.0
2017-May-21 08:00N 39°53' W 075°11'0 0.0
2017-May-21 07:30N 39°53' W 075°11'0 0.0
2017-May-21 07:00N 39°53' W 075°11'0 0.0
2017-May-21 06:30N 39°53' W 075°11'0 0.0
2017-May-21 06:00N 39°53' W 075°11'0 0.0
2017-May-21 05:30N 39°53' W 075°11'0 0.0
2017-May-21 05:00N 39°53' W 075°11'0 0.0
2017-May-21 04:22N 39°53' W 075°11'0 0.0
2017-May-21 04:00N 39°53' W 075°11'0 0.0
2017-May-21 03:30N 39°53' W 075°11'0 0.0
2017-May-21 03:00N 39°53' W 075°11'0 0.0
2017-May-21 02:30N 39°53' W 075°11'0 0.0
2017-May-21 02:00N 39°53' W 075°11'0 0.0
2017-May-21 01:30N 39°53' W 075°11'1 1.7
2017-May-21 01:00N 39°53' W 075°12'3 5.7
2017-May-21 00:30N 39°51' W 075°15'0 0.1
2017-May-21 00:00N 39°51' W 075°15'1 1.1
2017-May-20 23:30N 39°51' W 075°16'0 0.0
2017-May-20 23:00N 39°51' W 075°16'0 0.0
2017-May-20 22:30N 39°51' W 075°16'2 3.8
2017-May-20 22:00N 39°52' W 075°14'1 1.1
2017-May-20 21:30N 39°52' W 075°13'0 0.0
2017-May-20 21:00N 39°52' W 075°13'2 3.6
2017-May-20 20:30N 39°53' W 075°11'0 0.0
2017-May-20 20:00N 39°53' W 075°11'0 0.0
2017-May-20 19:30N 39°53' W 075°11'0 0.0
2017-May-20 19:00N 39°53' W 075°11'0 0.0
2017-May-20 18:30N 39°53' W 075°11'0 0.0
2017-May-20 18:00N 39°53' W 075°11'0 0.0
2017-May-20 17:30N 39°53' W 075°11'0 0.0
2017-May-20 17:00N 39°53' W 075°11'0 0.0
2017-May-20 16:30N 39°53' W 075°11'0 0.0
2017-May-20 16:00N 39°53' W 075°11'0 0.0
2017-May-20 15:30N 39°53' W 075°11'0 0.0
2017-May-20 15:00N 39°53' W 075°11'0 0.0
2017-May-20 14:30N 39°53' W 075°11'0 0.0
2017-May-20 13:30N 39°53' W 075°11'0 0.0
2017-May-20 13:00N 39°53' W 075°11'0 0.0
2017-May-20 12:30N 39°53' W 075°11'0 0.0
2017-May-20 12:00N 39°53' W 075°11'0 0.0
2017-May-20 11:30N 39°53' W 075°11'0 0.0
2017-May-20 11:00N 39°53' W 075°11'0 0.0
2017-May-20 10:30N 39°53' W 075°11'0 0.0
2017-May-20 10:00N 39°53' W 075°11'0 0.0
2017-May-20 09:30N 39°53' W 075°11'0 0.0
2017-May-20 09:00N 39°53' W 075°11'0 0.0
2017-May-20 08:30N 39°53' W 075°11'0 0.0
2017-May-20 08:00N 39°53' W 075°11'0 0.0
2017-May-20 07:30N 39°53' W 075°11'0 0.0
2017-May-20 07:00N 39°53' W 075°11'0 0.0
2017-May-20 06:30N 39°53' W 075°11'0 0.0
2017-May-20 06:00N 39°53' W 075°11'0 0.0
2017-May-20 05:30N 39°53' W 075°11'0 0.0
2017-May-20 05:00N 39°53' W 075°11'0 0.0
2017-May-20 04:30N 39°53' W 075°11'0 0.2
2017-May-20 04:00N 39°53' W 075°11'0 0.3
2017-May-20 03:30N 39°53' W 075°11'1 2.1
2017-May-20 03:00N 39°54' W 075°12'0 0.6
2017-May-20 02:30N 39°54' W 075°12'2 3.7
2017-May-20 02:01N 39°52' W 075°13'0 0.6
2017-May-20 01:31N 39°52' W 075°13'2 3.3
2017-May-20 01:00N 39°53' W 075°11'0 0.0
2017-May-20 00:30N 39°53' W 075°11'0 0.0
2017-May-20 00:01N 39°53' W 075°11'0 0.0
2017-May-19 23:30N 39°53' W 075°11'0 0.0
2017-May-19 23:00N 39°53' W 075°11'0 0.0
2017-May-19 22:31N 39°53' W 075°11'0 0.0
2017-May-19 22:01N 39°53' W 075°11'0 0.0
2017-May-19 21:30N 39°53' W 075°11'0 0.0
2017-May-19 21:01N 39°53' W 075°11'0 0.0
2017-May-19 20:31N 39°53' W 075°11'0 0.0
2017-May-19 20:00N 39°53' W 075°11'0 0.0
2017-May-19 19:31N 39°53' W 075°11'0 0.0
2017-May-19 19:00N 39°53' W 075°11'0 0.0
2017-May-19 18:30N 39°53' W 075°11'0 0.0
2017-May-19 18:00N 39°53' W 075°11'0 0.0
2017-May-19 17:30N 39°53' W 075°11'0 0.0
2017-May-19 17:01N 39°53' W 075°11'0 0.0
2017-May-19 16:31N 39°53' W 075°11'0 0.0
2017-May-19 16:01N 39°53' W 075°11'0 0.0
2017-May-19 15:31N 39°53' W 075°11'0 0.0
2017-May-19 15:01N 39°53' W 075°11'0 0.0
2017-May-19 14:00N 39°53' W 075°11'0 0.0
2017-May-19 13:31N 39°53' W 075°11'0 0.0
2017-May-19 13:00N 39°53' W 075°11'0 0.0
2017-May-19 12:31N 39°53' W 075°11'0 0.0
2017-May-19 12:00N 39°53' W 075°11'0 0.0
2017-May-19 11:30N 39°53' W 075°11'0 0.0
2017-May-19 11:00N 39°53' W 075°11'0 0.0
2017-May-19 10:31N 39°53' W 075°11'0 0.0
2017-May-19 10:00N 39°53' W 075°11'0 0.0
2017-May-19 09:30N 39°53' W 075°11'0 0.0
2017-May-19 09:01N 39°53' W 075°11'0 0.0
2017-May-19 08:30N 39°53' W 075°11'0 0.0
2017-May-19 08:00N 39°53' W 075°11'0 0.0
2017-May-19 07:31N 39°53' W 075°11'0 0.0
2017-May-19 07:01N 39°53' W 075°11'0 0.0
2017-May-19 06:30N 39°53' W 075°11'0 0.0
2017-May-19 06:01N 39°53' W 075°11'0 0.0
2017-May-19 05:30N 39°53' W 075°11'0 0.0
2017-May-19 05:01N 39°53' W 075°11'0 0.0
2017-May-19 04:30N 39°53' W 075°11'0 0.1
2017-May-19 04:01N 39°53' W 075°11'0 0.0
2017-May-19 03:30N 39°53' W 075°11'0 0.0
2017-May-19 03:01N 39°53' W 075°11'0 0.0
2017-May-19 02:30N 39°53' W 075°11'2 3.8
2017-May-19 02:00N 39°52' W 075°13'0 0.0
2017-May-19 01:30N 39°52' W 075°13'0 0.0
2017-May-19 01:01N 39°52' W 075°13'0 0.3
2017-May-19 00:30N 39°52' W 075°13'2 3.5
2017-May-19 00:01N 39°51' W 075°15'4 5.7
2017-May-18 23:24N 39°53' W 075°11'0 0.6
2017-May-18 23:01N 39°53' W 075°11'0 0.0
2017-May-18 22:31N 39°53' W 075°11'0 0.0
2017-May-18 22:01N 39°53' W 075°11'0 0.0
2017-May-18 21:30N 39°53' W 075°11'0 0.0
2017-May-18 21:00N 39°53' W 075°11'0 0.0
2017-May-18 20:31N 39°53' W 075°11'0 0.0
2017-May-18 20:00N 39°53' W 075°11'0 0.0
2017-May-18 19:30N 39°53' W 075°11'0 0.0
2017-May-18 19:00N 39°53' W 075°11'0 0.0
2017-May-18 18:30N 39°53' W 075°11'0 0.0
2017-May-18 18:01N 39°53' W 075°11'0 0.0
2017-May-18 17:31N 39°53' W 075°11'0 0.0
2017-May-18 17:00N 39°53' W 075°11'0 0.0
2017-May-18 16:31N 39°53' W 075°11'0 0.0
2017-May-18 16:01N 39°53' W 075°11'0 0.0
2017-May-18 15:31N 39°53' W 075°11'0 0.0
2017-May-18 15:00N 39°53' W 075°11'0 0.0
2017-May-18 14:00N 39°53' W 075°11'0 0.0
2017-May-18 13:30N 39°53' W 075°11'0 0.0
2017-May-18 13:00N 39°53' W 075°11'3 7.0
2017-May-18 12:31N 39°51' W 075°15'1 2.3
2017-May-18 12:01N 39°51' W 075°16'0 0.0
2017-May-18 11:30N 39°51' W 075°16'0 0.0
2017-May-18 11:00N 39°51' W 075°16'0 0.8
2017-May-18 10:30N 39°51' W 075°16'0 0.0
2017-May-18 10:01N 39°51' W 075°16'0 0.0
2017-May-18 09:30N 39°51' W 075°16'0 0.0
2017-May-18 09:01N 39°51' W 075°16'0 0.0
2017-May-18 08:30N 39°51' W 075°16'0 0.0
2017-May-18 07:56N 39°51' W 075°16'0 0.0
2017-May-18 07:30N 39°51' W 075°16'0 0.0
2017-May-18 07:01N 39°51' W 075°16'0 0.0
2017-May-18 06:31N 39°51' W 075°16'0 0.0
2017-May-18 06:00N 39°51' W 075°16'0 0.0
2017-May-18 05:31N 39°51' W 075°16'0 0.0
2017-May-18 05:01N 39°51' W 075°16'0 0.0
2017-May-18 04:30N 39°51' W 075°16'0 0.0
2017-May-18 04:00N 39°51' W 075°16'0 0.0
2017-May-18 03:30N 39°51' W 075°16'0 0.0
2017-May-18 03:01N 39°51' W 075°16'0 0.0
2017-May-18 02:30N 39°51' W 075°16'0 0.0
2017-May-18 02:00N 39°51' W 075°16'0 0.0
2017-May-18 01:30N 39°51' W 075°16'0 0.0
2017-May-18 01:00N 39°51' W 075°16'0 0.0
2017-May-18 00:30N 39°51' W 075°16'0 0.0
2017-May-18 00:00N 39°51' W 075°16'0 0.0
2017-May-17 23:31N 39°51' W 075°16'0 0.0
2017-May-17 23:00N 39°51' W 075°16'0 0.0
2017-May-17 22:30N 39°51' W 075°16'1 2.5
2017-May-17 22:00N 39°51' W 075°14'2 3.6
2017-May-17 21:30N 39°52' W 075°12'1 2.6
2017-May-17 21:00N 39°53' W 075°11'0 0.0
2017-May-17 20:31N 39°53' W 075°11'0 0.0
2017-May-17 20:00N 39°53' W 075°11'0 0.0
2017-May-17 19:30N 39°53' W 075°11'0 0.0
2017-May-17 19:00N 39°53' W 075°11'0 0.0
2017-May-17 18:30N 39°53' W 075°11'0 0.0
2017-May-17 18:00N 39°53' W 075°11'0 0.0
2017-May-17 17:30N 39°53' W 075°11'0 0.0
2017-May-17 17:01N 39°53' W 075°11'0 0.0
2017-May-17 16:31N 39°53' W 075°11'0 0.0
2017-May-17 16:00N 39°53' W 075°11'0 0.0
2017-May-17 15:31N 39°53' W 075°11'0 0.0
2017-May-17 15:00N 39°53' W 075°11'0 0.1
2017-May-17 14:30N 39°53' W 075°11'2 2.3
2017-May-17 13:30N 39°52' W 075°13'2 4.7
2017-May-17 13:00N 39°51' W 075°16'0 0.0
2017-May-17 12:30N 39°51' W 075°16'0 0.0
2017-May-17 12:00N 39°51' W 075°16'1 2.4
2017-May-17 11:30N 39°51' W 075°18'1 2.5
2017-May-17 11:00N 39°51' W 075°16'0 0.7
2017-May-17 10:30N 39°51' W 075°16'0 0.0
2017-May-17 10:00N 39°51' W 075°16'0 0.0
2017-May-17 09:30N 39°51' W 075°16'0 0.0
2017-May-17 09:00N 39°51' W 075°16'0 0.0
2017-May-17 08:31N 39°51' W 075°16'0 0.0
2017-May-17 08:01N 39°51' W 075°16'0 0.0
2017-May-17 07:30N 39°51' W 075°16'0 0.0
2017-May-17 07:00N 39°51' W 075°16'0 0.0
2017-May-17 06:31N 39°51' W 075°16'0 0.0
2017-May-17 06:01N 39°51' W 075°16'0 0.0
2017-May-17 05:30N 39°51' W 075°16'0 0.0
2017-May-17 05:00N 39°51' W 075°16'0 0.0
2017-May-17 04:31N 39°51' W 075°16'0 0.0
2017-May-17 04:00N 39°51' W 075°16'0 0.0
2017-May-17 03:30N 39°51' W 075°16'0 0.0
2017-May-17 03:01N 39°51' W 075°16'0 0.0
2017-May-17 02:31N 39°51' W 075°16'0 0.0
2017-May-17 02:00N 39°51' W 075°16'0 0.0
2017-May-17 01:30N 39°51' W 075°16'0 0.0
2017-May-17 01:00N 39°51' W 075°16'0 0.0
2017-May-17 00:30N 39°51' W 075°16'1 2.4
2017-May-17 00:00N 39°51' W 075°14'0 0.5
2017-May-16 23:30N 39°51' W 075°14'0 0.8
2017-May-16 23:00N 39°52' W 075°14'2 3.2
2017-May-16 22:30N 39°53' W 075°12'1 1.9
2017-May-16 22:00N 39°53' W 075°11'0 0.0
2017-May-16 21:30N 39°53' W 075°11'0 0.0
2017-May-16 21:00N 39°53' W 075°11'0 0.3
2017-May-16 20:30N 39°53' W 075°11'0 0.3
2017-May-16 20:00N 39°53' W 075°11'0 0.0
2017-May-16 19:30N 39°53' W 075°11'0 0.0
2017-May-16 19:00N 39°53' W 075°11'  
Track history (hours):
 
Tides and Currents Weather Stations Pressure Air Temp Water Temp Dewpoint Dewpoint Depression Visibility Wind Speed Wind Dir Waves Ship Positions

Capt. Harry

Owner: Wilmington Tug, Inc., New Castle, DE. More information available from US FCC via Universal Licensing System and Coast Guard Vessel Documentation Center.

Last reported at 2017-May-26 18:31 UTC. Time now 2017-May-26 18:44 UTC.
Position N 39°53' W 075°11'.

Length 24 m; draft 4 m.

Type: Tug. MMSI: 367012530.

Date/timePositionNaut miles runAvg speedWind from/ knotsBaromVisibWave heightAir tempDewpointWater temp
2017-May-26 18:31N 39°53' W 075°11'0 0.0
2017-May-26 18:01N 39°53' W 075°11'0 0.0
2017-May-26 17:31N 39°53' W 075°11'0 0.0
2017-May-26 17:00N 39°53' W 075°11'0 0.0
2017-May-26 16:30N 39°53' W 075°11'0 0.0
2017-May-26 16:00N 39°53' W 075°11'0 0.0
2017-May-26 15:31N 39°53' W 075°11'0 0.0
2017-May-26 15:00N 39°53' W 075°11'0 0.0
2017-May-26 14:00N 39°53' W 075°11'0 0.0
2017-May-26 13:30N 39°53' W 075°11'0 0.0
2017-May-26 13:00N 39°53' W 075°11'0 0.0
2017-May-26 12:30N 39°53' W 075°11'0 0.0
2017-May-26 12:00N 39°53' W 075°11'0 0.0
2017-May-26 11:30N 39°53' W 075°11'0 0.0
2017-May-26 11:00N 39°53' W 075°11'0 0.0
2017-May-26 10:30N 39°53' W 075°11'0 0.0
2017-May-26 10:00N 39°53' W 075°11'0 0.0
2017-May-26 09:30N 39°53' W 075°11'0 0.0
2017-May-26 09:00N 39°53' W 075°11'0 0.0
2017-May-26 08:30N 39°53' W 075°11'0 0.0
2017-May-26 08:01N 39°53' W 075°11'0 0.0
2017-May-26 07:30N 39°53' W 075°11'0 0.0
2017-May-26 07:00N 39°53' W 075°11'0 0.0
2017-May-26 06:30N 39°53' W 075°11'0 0.0
2017-May-26 06:00N 39°53' W 075°11'0 0.0
2017-May-26 05:30N 39°53' W 075°11'0 0.0
2017-May-26 05:00N 39°53' W 075°11'0 0.0
2017-May-26 04:30N 39°53' W 075°11'0 0.0
2017-May-26 04:00N 39°53' W 075°11'0 0.0
2017-May-26 03:30N 39°53' W 075°11'0 0.0
2017-May-26 03:00N 39°53' W 075°11'0 0.6
2017-May-26 02:30N 39°53' W 075°11'4 8.6
2017-May-26 02:01N 39°51' W 075°16'0 0.0
2017-May-26 01:30N 39°51' W 075°16'1 2.7
2017-May-26 01:01N 39°51' W 075°15'1 1.5
2017-May-26 00:30N 39°52' W 075°14'2 4.9
2017-May-26 00:00N 39°53' W 075°11'0 0.0
2017-May-25 23:31N 39°53' W 075°11'0 0.0
2017-May-25 23:00N 39°53' W 075°11'0 0.0
2017-May-25 22:30N 39°53' W 075°11'0 0.0
2017-May-25 22:00N 39°53' W 075°11'0 0.0
2017-May-25 21:31N 39°53' W 075°11'0 0.0
2017-May-25 21:01N 39°53' W 075°11'0 0.0
2017-May-25 20:30N 39°53' W 075°11'0 0.0
2017-May-25 20:00N 39°53' W 075°11'2 4.5
2017-May-25 19:30N 39°52' W 075°14'510.0
2017-May-25 19:00N 39°51' W 075°20'5 9.3
2017-May-25 18:30N 39°48' W 075°25'0 0.1
2017-May-25 18:01N 39°48' W 075°25'0 0.0
2017-May-25 17:30N 39°48' W 075°25'0 0.1
2017-May-25 17:00N 39°48' W 075°25'0 0.6
2017-May-25 16:30N 39°49' W 075°25'0 0.5
2017-May-25 16:01N 39°49' W 075°24'0 0.0
2017-May-25 15:31N 39°49' W 075°24'0 0.4
2017-May-25 15:01N 39°49' W 075°24'0 0.2
2017-May-25 14:00N 39°49' W 075°25'1 2.2
2017-May-25 13:30N 39°48' W 075°26'0 0.0
2017-May-25 13:00N 39°48' W 075°26'0 0.0
2017-May-25 12:30N 39°48' W 075°26'0 0.0
2017-May-25 12:00N 39°48' W 075°26'0 0.0
2017-May-25 11:30N 39°48' W 075°26'0 0.0
2017-May-25 11:00N 39°48' W 075°26'0 0.0
2017-May-25 10:30N 39°48' W 075°26'0 0.0
2017-May-25 10:00N 39°48' W 075°26'0 0.0
2017-May-25 09:30N 39°48' W 075°26'0 0.0
2017-May-25 09:00N 39°48' W 075°26'0 0.0
2017-May-25 08:31N 39°48' W 075°26'0 0.0
2017-May-25 08:00N 39°48' W 075°26'0 0.0
2017-May-25 07:30N 39°48' W 075°26'0 0.0
2017-May-25 07:00N 39°48' W 075°26'0 0.0
2017-May-25 06:30N 39°48' W 075°26'1 2.4
2017-May-25 06:00N 39°49' W 075°24'0 0.1
2017-May-25 05:31N 39°49' W 075°24'0 0.0
2017-May-25 05:00N 39°49' W 075°24'1 1.2
2017-May-25 04:30N 39°48' W 075°25'0 0.1
2017-May-25 04:00N 39°48' W 075°25'0 0.0
2017-May-25 03:30N 39°48' W 075°25'0 0.0
2017-May-25 03:00N 39°48' W 075°25'0 0.1
2017-May-25 02:30N 39°48' W 075°25'1 1.4
2017-May-25 02:00N 39°48' W 075°26'2 4.0
2017-May-25 01:31N 39°49' W 075°24'4 8.7
2017-May-25 01:00N 39°51' W 075°19'510.2
2017-May-25 00:30N 39°53' W 075°12'1 2.3
2017-May-25 00:00N 39°53' W 075°11'0 0.0
2017-May-24 23:30N 39°53' W 075°11'0 0.0
2017-May-24 23:00N 39°53' W 075°11'0 0.0
2017-May-24 22:30N 39°53' W 075°11'0 0.0
2017-May-24 22:00N 39°53' W 075°11'0 0.0
2017-May-24 21:31N 39°53' W 075°11'0 0.0
2017-May-24 21:00N 39°53' W 075°11'0 0.0
2017-May-24 20:30N 39°53' W 075°11'1 1.3
2017-May-24 20:00N 39°53' W 075°12'4 7.4
2017-May-24 19:31N 39°51' W 075°16'0 0.2
2017-May-24 19:00N 39°51' W 075°16'0 0.0
2017-May-24 18:30N 39°51' W 075°16'4 7.7
2017-May-24 18:01N 39°53' W 075°12'2 3.5
2017-May-24 17:30N 39°55' W 075°13'1 2.4
2017-May-24 17:00N 39°54' W 075°12'1 1.5
2017-May-24 16:30N 39°53' W 075°11'3 5.4
2017-May-24 16:01N 39°52' W 075°14'510.6
2017-May-24 15:30N 39°51' W 075°21'510.9
2017-May-24 15:00N 39°47' W 075°27'713.6
2017-May-24 14:30N 39°42' W 075°31'8 7.6
2017-May-24 13:30N 39°34' W 075°34'2 3.1
2017-May-24 13:01N 39°35' W 075°35'0 0.0
2017-May-24 12:31N 39°35' W 075°35'0 0.2
2017-May-24 12:00N 39°35' W 075°35'4 8.1
2017-May-24 11:30N 39°39' W 075°34'5 9.4
2017-May-24 11:00N 39°43' W 075°31'0 0.2
2017-May-24 10:30N 39°43' W 075°31'0 0.0
2017-May-24 10:01N 39°43' W 075°31'0 0.0
2017-May-24 09:30N 39°43' W 075°31'0 0.0
2017-May-24 09:01N 39°43' W 075°31'0 0.0
2017-May-24 08:30N 39°43' W 075°31'0 0.0
2017-May-24 08:01N 39°43' W 075°31'0 0.0
2017-May-24 07:30N 39°43' W 075°31'0 0.0
2017-May-24 07:00N 39°43' W 075°31'0 0.0
2017-May-24 06:30N 39°43' W 075°31'0 0.0
2017-May-24 06:00N 39°43' W 075°31'0 0.0
2017-May-24 05:31N 39°43' W 075°31'0 0.0
2017-May-24 05:00N 39°43' W 075°31'0 0.0
2017-May-24 04:30N 39°43' W 075°31'0 0.4
2017-May-24 04:00N 39°43' W 075°31'0 0.4
2017-May-24 03:30N 39°43' W 075°31'0 0.0
2017-May-24 03:00N 39°43' W 075°31'0 0.0
2017-May-24 02:30N 39°43' W 075°31'0 0.0
2017-May-24 02:00N 39°43' W 075°31'0 0.0
2017-May-24 01:30N 39°43' W 075°31'0 0.0
2017-May-24 01:00N 39°43' W 075°31'0 0.0
2017-May-24 00:30N 39°43' W 075°31'0 0.0
2017-May-24 00:01N 39°43' W 075°31'0 0.0
2017-May-23 23:30N 39°43' W 075°31'0 0.9
2017-May-23 23:01N 39°43' W 075°30'611.8
2017-May-23 22:30N 39°48' W 075°26'1 1.8
2017-May-23 22:00N 39°48' W 075°25'0 0.4
2017-May-23 21:31N 39°48' W 075°25'3 6.2
2017-May-23 21:00N 39°50' W 075°22'5 9.4
2017-May-23 20:31N 39°51' W 075°16'0 0.0
2017-May-23 20:00N 39°51' W 075°16'0 0.0
2017-May-23 19:30N 39°51' W 075°16'0 0.0
2017-May-23 19:00N 39°51' W 075°16'0 0.0
2017-May-23 18:30N 39°51' W 075°16'0 0.0
2017-May-23 18:00N 39°51' W 075°16'0 0.0
2017-May-23 17:30N 39°51' W 075°16'0 0.0
2017-May-23 17:00N 39°51' W 075°16'0 0.0
2017-May-23 16:30N 39°51' W 075°16'0 0.0
2017-May-23 16:00N 39°51' W 075°16'0 0.0
2017-May-23 15:30N 39°51' W 075°16'0 0.0
2017-May-23 15:00N 39°51' W 075°16'0 0.2
2017-May-23 14:00N 39°51' W 075°16'0 1.0
2017-May-23 13:30N 39°51' W 075°15'2 3.7
2017-May-23 13:00N 39°52' W 075°13'2 4.2
2017-May-23 12:30N 39°53' W 075°11'0 0.0
2017-May-23 12:01N 39°53' W 075°11'0 0.0
2017-May-23 11:30N 39°53' W 075°11'0 0.0
2017-May-23 11:00N 39°53' W 075°11'0 0.0
2017-May-23 10:30N 39°53' W 075°11'0 0.0
2017-May-23 10:00N 39°53' W 075°11'0 0.0
2017-May-23 09:30N 39°53' W 075°11'0 0.0
2017-May-23 09:00N 39°53' W 075°11'0 0.0
2017-May-23 08:30N 39°53' W 075°11'0 0.0
2017-May-23 08:00N 39°53' W 075°11'0 0.0
2017-May-23 07:31N 39°53' W 075°11'0 0.0
2017-May-23 07:00N 39°53' W 075°11'3 6.9
2017-May-23 06:31N 39°56' W 075°08'4 8.1
2017-May-23 06:00N 39°59' W 075°04'0 0.1
2017-May-23 05:30N 39°59' W 075°04'3 6.0
2017-May-23 05:00N 39°58' W 075°08'4 8.3
2017-May-23 04:30N 39°53' W 075°08'3 5.4
2017-May-23 04:00N 39°53' W 075°12'1 1.5
2017-May-23 03:30N 39°54' W 075°12'1 1.1
2017-May-23 03:00N 39°54' W 075°12'0 0.3
2017-May-23 02:30N 39°54' W 075°12'0 0.4
2017-May-23 02:00N 39°54' W 075°12'3 5.7
2017-May-23 01:30N 39°51' W 075°14'0 0.1
2017-May-23 01:00N 39°51' W 075°14'1 2.0
2017-May-23 00:30N 39°51' W 075°15'2 3.1
2017-May-23 00:01N 39°52' W 075°14'2 4.7
2017-May-22 23:31N 39°53' W 075°11'0 0.0
2017-May-22 23:01N 39°53' W 075°11'0 0.0
2017-May-22 22:30N 39°53' W 075°11'0 0.0
2017-May-22 22:00N 39°53' W 075°11'0 0.0
2017-May-22 21:30N 39°53' W 075°11'0 0.0
2017-May-22 21:01N 39°53' W 075°11'0 0.0
2017-May-22 20:30N 39°53' W 075°11'0 0.0
2017-May-22 20:01N 39°53' W 075°11'0 0.0
2017-May-22 19:30N 39°53' W 075°11'0 0.0
2017-May-22 19:00N 39°53' W 075°11'1 1.4
2017-May-22 18:30N 39°53' W 075°10'4 8.2
2017-May-22 18:00N 39°57' W 075°08'4 7.6
2017-May-22 17:30N 39°59' W 075°04'0 0.0
2017-May-22 17:00N 39°59' W 075°04'1 2.0
2017-May-22 16:30N 39°59' W 075°05'0 0.0
2017-May-22 16:00N 39°59' W 075°05'0 0.0
2017-May-22 15:30N 39°59' W 075°05'0 0.0
2017-May-22 15:00N 39°59' W 075°05'0 0.0
2017-May-22 14:00N 39°59' W 075°05'0 0.0
2017-May-22 13:30N 39°59' W 075°05'0 0.0
2017-May-22 13:00N 39°59' W 075°05'0 0.0
2017-May-22 12:30N 39°59' W 075°05'0 0.0
2017-May-22 12:00N 39°59' W 075°05'0 0.0
2017-May-22 11:30N 39°59' W 075°05'0 0.0
2017-May-22 11:00N 39°59' W 075°05'0 0.0
2017-May-22 10:30N 39°59' W 075°05'0 0.0
2017-May-22 10:00N 39°59' W 075°05'0 0.0
2017-May-22 09:30N 39°59' W 075°05'0 0.0
2017-May-22 09:00N 39°59' W 075°05'0 0.0
2017-May-22 08:30N 39°59' W 075°05'0 0.0
2017-May-22 07:58N 39°59' W 075°05'0 0.0
2017-May-22 07:30N 39°59' W 075°05'0 0.0
2017-May-22 07:00N 39°59' W 075°05'0 0.0
2017-May-22 06:30N 39°59' W 075°05'1 1.5
2017-May-22 06:00N 39°59' W 075°04'0 0.0
2017-May-22 05:30N 39°59' W 075°04'0 0.0
2017-May-22 05:00N 39°59' W 075°04'1 1.7
2017-May-22 04:30N 39°59' W 075°06'2 4.5
2017-May-22 04:00N 39°57' W 075°08'1 1.5
2017-May-22 03:30N 39°57' W 075°08'1 1.6
2017-May-22 03:00N 39°57' W 075°08'3 6.1
2017-May-22 02:30N 39°59' W 075°04'1 1.6
2017-May-22 02:00N 39°59' W 075°05'0 0.0
2017-May-22 01:30N 39°59' W 075°05'0 0.0
2017-May-22 01:00N 39°59' W 075°05'0 0.0
2017-May-22 00:30N 39°59' W 075°05'0 0.0
2017-May-22 00:00N 39°59' W 075°05'0 0.0
2017-May-21 23:30N 39°59' W 075°05'0 0.5
2017-May-21 23:00N 39°59' W 075°05'0 0.5
2017-May-21 22:30N 39°59' W 075°05'0 0.0
2017-May-21 22:00N 39°59' W 075°05'0 0.0
2017-May-21 21:30N 39°59' W 075°05'0 0.0
2017-May-21 21:00N 39°59' W 075°05'0 0.0
2017-May-21 20:30N 39°59' W 075°05'0 0.0
2017-May-21 20:00N 39°59' W 075°05'0 0.0
2017-May-21 19:30N 39°59' W 075°05'0 0.0
2017-May-21 19:00N 39°59' W 075°05'1 1.6
2017-May-21 18:30N 39°59' W 075°04'0 0.4
2017-May-21 18:00N 39°59' W 075°04'0 0.0
2017-May-21 17:30N 39°59' W 075°04'0 0.3
2017-May-21 17:00N 39°59' W 075°04'3 6.7
2017-May-21 16:30N 39°57' W 075°08'3 7.0
2017-May-21 16:00N 39°54' W 075°08'2 4.7
2017-May-21 15:30N 39°53' W 075°11'0 0.0
2017-May-21 15:00N 39°53' W 075°11'0 0.0
2017-May-21 14:00N 39°53' W 075°11'0 0.0
2017-May-21 13:30N 39°53' W 075°11'0 0.0
2017-May-21 13:00N 39°53' W 075°11'0 0.0
2017-May-21 12:30N 39°53' W 075°11'0 0.0
2017-May-21 12:00N 39°53' W 075°11'0 0.0
2017-May-21 11:30N 39°53' W 075°11'0 0.0
2017-May-21 11:00N 39°53' W 075°11'0 0.0
2017-May-21 10:30N 39°53' W 075°11'0 0.0
2017-May-21 10:00N 39°53' W 075°11'0 0.0
2017-May-21 09:30N 39°53' W 075°11'0 0.0
2017-May-21 09:00N 39°53' W 075°11'0 0.0
2017-May-21 08:30N 39°53' W 075°11'0 0.0
2017-May-21 08:00N 39°53' W 075°11'0 0.0
2017-May-21 07:30N 39°53' W 075°11'0 0.0
2017-May-21 07:00N 39°53' W 075°11'0 0.0
2017-May-21 06:30N 39°53' W 075°11'0 0.0
2017-May-21 06:00N 39°53' W 075°11'0 0.0
2017-May-21 05:30N 39°53' W 075°11'0 0.0
2017-May-21 05:00N 39°53' W 075°11'0 0.0
2017-May-21 04:22N 39°53' W 075°11'0 0.0
2017-May-21 04:00N 39°53' W 075°11'0 0.0
2017-May-21 03:30N 39°53' W 075°11'0 0.0
2017-May-21 03:00N 39°53' W 075°11'0 0.0
2017-May-21 02:30N 39°53' W 075°11'0 0.0
2017-May-21 02:00N 39°53' W 075°11'0 0.0
2017-May-21 01:30N 39°53' W 075°11'1 1.7
2017-May-21 01:00N 39°53' W 075°12'3 5.7
2017-May-21 00:30N 39°51' W 075°15'0 0.1
2017-May-21 00:00N 39°51' W 075°15'1 1.1
2017-May-20 23:30N 39°51' W 075°16'0 0.0
2017-May-20 23:00N 39°51' W 075°16'0 0.0
2017-May-20 22:30N 39°51' W 075°16'2 3.8
2017-May-20 22:00N 39°52' W 075°14'1 1.1
2017-May-20 21:30N 39°52' W 075°13'0 0.0
2017-May-20 21:00N 39°52' W 075°13'2 3.6
2017-May-20 20:30N 39°53' W 075°11'0 0.0
2017-May-20 20:00N 39°53' W 075°11'0 0.0
2017-May-20 19:30N 39°53' W 075°11'0 0.0
2017-May-20 19:00N 39°53' W 075°11'0 0.0
2017-May-20 18:30N 39°53' W 075°11'0 0.0
2017-May-20 18:00N 39°53' W 075°11'0 0.0
2017-May-20 17:30N 39°53' W 075°11'0 0.0
2017-May-20 17:00N 39°53' W 075°11'0 0.0
2017-May-20 16:30N 39°53' W 075°11'0 0.0
2017-May-20 16:00N 39°53' W 075°11'0 0.0
2017-May-20 15:30N 39°53' W 075°11'0 0.0
2017-May-20 15:00N 39°53' W 075°11'0 0.0
2017-May-20 14:30N 39°53' W 075°11'0 0.0
2017-May-20 13:30N 39°53' W 075°11'0 0.0
2017-May-20 13:00N 39°53' W 075°11'0 0.0
2017-May-20 12:30N 39°53' W 075°11'0 0.0
2017-May-20 12:00N 39°53' W 075°11'0 0.0
2017-May-20 11:30N 39°53' W 075°11'0 0.0
2017-May-20 11:00N 39°53' W 075°11'0 0.0
2017-May-20 10:30N 39°53' W 075°11'0 0.0
2017-May-20 10:00N 39°53' W 075°11'0 0.0
2017-May-20 09:30N 39°53' W 075°11'0 0.0
2017-May-20 09:00N 39°53' W 075°11'0 0.0
2017-May-20 08:30N 39°53' W 075°11'0 0.0
2017-May-20 08:00N 39°53' W 075°11'0 0.0
2017-May-20 07:30N 39°53' W 075°11'0 0.0
2017-May-20 07:00N 39°53' W 075°11'0 0.0
2017-May-20 06:30N 39°53' W 075°11'0 0.0
2017-May-20 06:00N 39°53' W 075°11'0 0.0
2017-May-20 05:30N 39°53' W 075°11'0 0.0
2017-May-20 05:00N 39°53' W 075°11'0 0.0
2017-May-20 04:30N 39°53' W 075°11'0 0.2
2017-May-20 04:00N 39°53' W 075°11'0 0.3
2017-May-20 03:30N 39°53' W 075°11'1 2.1
2017-May-20 03:00N 39°54' W 075°12'0 0.6
2017-May-20 02:30N 39°54' W 075°12'2 3.7
2017-May-20 02:01N 39°52' W 075°13'0 0.6
2017-May-20 01:31N 39°52' W 075°13'2 3.3
2017-May-20 01:00N 39°53' W 075°11'0 0.0
2017-May-20 00:30N 39°53' W 075°11'0 0.0
2017-May-20 00:01N 39°53' W 075°11'0 0.0
2017-May-19 23:30N 39°53' W 075°11'0 0.0
2017-May-19 23:00N 39°53' W 075°11'0 0.0
2017-May-19 22:31N 39°53' W 075°11'0 0.0
2017-May-19 22:01N 39°53' W 075°11'0 0.0
2017-May-19 21:30N 39°53' W 075°11'0 0.0
2017-May-19 21:01N 39°53' W 075°11'0 0.0
2017-May-19 20:31N 39°53' W 075°11'0 0.0
2017-May-19 20:00N 39°53' W 075°11'0 0.0
2017-May-19 19:31N 39°53' W 075°11'0 0.0
2017-May-19 19:00N 39°53' W 075°11'0 0.0
2017-May-19 18:30N 39°53' W 075°11'0 0.0
2017-May-19 18:00N 39°53' W 075°11'0 0.0
2017-May-19 17:30N 39°53' W 075°11'0 0.0
2017-May-19 17:01N 39°53' W 075°11'0 0.0
2017-May-19 16:31N 39°53' W 075°11'0 0.0
2017-May-19 16:01N 39°53' W 075°11'0 0.0
2017-May-19 15:31N 39°53' W 075°11'0 0.0
2017-May-19 15:01N 39°53' W 075°11'0 0.0
2017-May-19 14:00N 39°53' W 075°11'0 0.0
2017-May-19 13:31N 39°53' W 075°11'0 0.0
2017-May-19 13:00N 39°53' W 075°11'0 0.0
2017-May-19 12:31N 39°53' W 075°11'0 0.0
2017-May-19 12:00N 39°53' W 075°11'0 0.0
2017-May-19 11:30N 39°53' W 075°11'0 0.0
2017-May-19 11:00N 39°53' W 075°11'0 0.0
2017-May-19 10:31N 39°53' W 075°11'0 0.0
2017-May-19 10:00N 39°53' W 075°11'0 0.0
2017-May-19 09:30N 39°53' W 075°11'0 0.0
2017-May-19 09:01N 39°53' W 075°11'0 0.0
2017-May-19 08:30N 39°53' W 075°11'0 0.0
2017-May-19 08:00N 39°53' W 075°11'0 0.0
2017-May-19 07:31N 39°53' W 075°11'0 0.0
2017-May-19 07:01N 39°53' W 075°11'0 0.0
2017-May-19 06:30N 39°53' W 075°11'0 0.0
2017-May-19 06:01N 39°53' W 075°11'0 0.0
2017-May-19 05:30N 39°53' W 075°11'0 0.0
2017-May-19 05:01N 39°53' W 075°11'0 0.0
2017-May-19 04:30N 39°53' W 075°11'0 0.1
2017-May-19 04:01N 39°53' W 075°11'0 0.0
2017-May-19 03:30N 39°53' W 075°11'0 0.0
2017-May-19 03:01N 39°53' W 075°11'0 0.0
2017-May-19 02:30N 39°53' W 075°11'2 3.8
2017-May-19 02:00N 39°52' W 075°13'0 0.0
2017-May-19 01:30N 39°52' W 075°13'0 0.0
2017-May-19 01:01N 39°52' W 075°13'0 0.3
2017-May-19 00:30N 39°52' W 075°13'2 3.5
2017-May-19 00:01N 39°51' W 075°15'4 5.7
2017-May-18 23:24N 39°53' W 075°11'0 0.6
2017-May-18 23:01N 39°53' W 075°11'0 0.0
2017-May-18 22:31N 39°53' W 075°11'0 0.0
2017-May-18 22:01N 39°53' W 075°11'0 0.0
2017-May-18 21:30N 39°53' W 075°11'0 0.0
2017-May-18 21:00N 39°53' W 075°11'0 0.0
2017-May-18 20:31N 39°53' W 075°11'0 0.0
2017-May-18 20:00N 39°53' W 075°11'0 0.0
2017-May-18 19:30N 39°53' W 075°11'0 0.0
2017-May-18 19:00N 39°53' W 075°11'0 0.0
2017-May-18 18:30N 39°53' W 075°11'0 0.0
2017-May-18 18:01N 39°53' W 075°11'0 0.0
2017-May-18 17:31N 39°53' W 075°11'0 0.0
2017-May-18 17:00N 39°53' W 075°11'0 0.0
2017-May-18 16:31N 39°53' W 075°11'0 0.0
2017-May-18 16:01N 39°53' W 075°11'0 0.0
2017-May-18 15:31N 39°53' W 075°11'0 0.0
2017-May-18 15:00N 39°53' W 075°11'0 0.0
2017-May-18 14:00N 39°53' W 075°11'0 0.0
2017-May-18 13:30N 39°53' W 075°11'0 0.0
2017-May-18 13:00N 39°53' W 075°11'3 7.0
2017-May-18 12:31N 39°51' W 075°15'1 2.3
2017-May-18 12:01N 39°51' W 075°16'0 0.0
2017-May-18 11:30N 39°51' W 075°16'0 0.0
2017-May-18 11:00N 39°51' W 075°16'0 0.8
2017-May-18 10:30N 39°51' W 075°16'0 0.0
2017-May-18 10:01N 39°51' W 075°16'0 0.0
2017-May-18 09:30N 39°51' W 075°16'0 0.0
2017-May-18 09:01N 39°51' W 075°16'0 0.0
2017-May-18 08:30N 39°51' W 075°16'0 0.0
2017-May-18 07:56N 39°51' W 075°16'0 0.0
2017-May-18 07:30N 39°51' W 075°16'0 0.0
2017-May-18 07:01N 39°51' W 075°16'0 0.0
2017-May-18 06:31N 39°51' W 075°16'0 0.0
2017-May-18 06:00N 39°51' W 075°16'0 0.0
2017-May-18 05:31N 39°51' W 075°16'0 0.0
2017-May-18 05:01N 39°51' W 075°16'0 0.0
2017-May-18 04:30N 39°51' W 075°16'0 0.0
2017-May-18 04:00N 39°51' W 075°16'0 0.0
2017-May-18 03:30N 39°51' W 075°16'0 0.0
2017-May-18 03:01N 39°51' W 075°16'0 0.0
2017-May-18 02:30N 39°51' W 075°16'0 0.0
2017-May-18 02:00N 39°51' W 075°16'0 0.0
2017-May-18 01:30N 39°51' W 075°16'0 0.0
2017-May-18 01:00N 39°51' W 075°16'0 0.0
2017-May-18 00:30N 39°51' W 075°16'0 0.0
2017-May-18 00:00N 39°51' W 075°16'0 0.0
2017-May-17 23:31N 39°51' W 075°16'0 0.0
2017-May-17 23:00N 39°51' W 075°16'0 0.0
2017-May-17 22:30N 39°51' W 075°16'1 2.5
2017-May-17 22:00N 39°51' W 075°14'2 3.6
2017-May-17 21:30N 39°52' W 075°12'1 2.6
2017-May-17 21:00N 39°53' W 075°11'0 0.0
2017-May-17 20:31N 39°53' W 075°11'0 0.0
2017-May-17 20:00N 39°53' W 075°11'0 0.0
2017-May-17 19:30N 39°53' W 075°11'0 0.0
2017-May-17 19:00N 39°53' W 075°11'0 0.0
2017-May-17 18:30N 39°53' W 075°11'0 0.0
2017-May-17 18:00N 39°53' W 075°11'0 0.0
2017-May-17 17:30N 39°53' W 075°11'0 0.0
2017-May-17 17:01N 39°53' W 075°11'0 0.0
2017-May-17 16:31N 39°53' W 075°11'0 0.0
2017-May-17 16:00N 39°53' W 075°11'0 0.0
2017-May-17 15:31N 39°53' W 075°11'0 0.0
2017-May-17 15:00N 39°53' W 075°11'0 0.1
2017-May-17 14:30N 39°53' W 075°11'2 2.3
2017-May-17 13:30N 39°52' W 075°13'2 4.7
2017-May-17 13:00N 39°51' W 075°16'0 0.0
2017-May-17 12:30N 39°51' W 075°16'0 0.0
2017-May-17 12:00N 39°51' W 075°16'1 2.4
2017-May-17 11:30N 39°51' W 075°18'1 2.5
2017-May-17 11:00N 39°51' W 075°16'0 0.7
2017-May-17 10:30N 39°51' W 075°16'0 0.0
2017-May-17 10:00N 39°51' W 075°16'0 0.0
2017-May-17 09:30N 39°51' W 075°16'0 0.0
2017-May-17 09:00N 39°51' W 075°16'0 0.0
2017-May-17 08:31N 39°51' W 075°16'0 0.0
2017-May-17 08:01N 39°51' W 075°16'0 0.0
2017-May-17 07:30N 39°51' W 075°16'0 0.0
2017-May-17 07:00N 39°51' W 075°16'0 0.0
2017-May-17 06:31N 39°51' W 075°16'0 0.0
2017-May-17 06:01N 39°51' W 075°16'0 0.0
2017-May-17 05:30N 39°51' W 075°16'0 0.0
2017-May-17 05:00N 39°51' W 075°16'0 0.0
2017-May-17 04:31N 39°51' W 075°16'0 0.0
2017-May-17 04:00N 39°51' W 075°16'0 0.0
2017-May-17 03:30N 39°51' W 075°16'0 0.0
2017-May-17 03:01N 39°51' W 075°16'0 0.0
2017-May-17 02:31N 39°51' W 075°16'0 0.0
2017-May-17 02:00N 39°51' W 075°16'0 0.0
2017-May-17 01:30N 39°51' W 075°16'0 0.0
2017-May-17 01:00N 39°51' W 075°16'0 0.0
2017-May-17 00:30N 39°51' W 075°16'1 2.4
2017-May-17 00:00N 39°51' W 075°14'0 0.5
2017-May-16 23:30N 39°51' W 075°14'0 0.8
2017-May-16 23:00N 39°52' W 075°14'2 3.2
2017-May-16 22:30N 39°53' W 075°12'1 1.9
2017-May-16 22:00N 39°53' W 075°11'0 0.0
2017-May-16 21:30N 39°53' W 075°11'0 0.0
2017-May-16 21:00N 39°53' W 075°11'0 0.3
2017-May-16 20:30N 39°53' W 075°11'0 0.3
2017-May-16 20:00N 39°53' W 075°11'0 0.0
2017-May-16 19:30N 39°53' W 075°11'0 0.0
2017-May-16 19:00N 39°53' W 075°11'  

Dump ship's entire track history